sensor_id;sensor_type;location;lat;lon;timestamp;pressure;altitude;pressure_sealevel;temperature;humidity
60244;BME280;46106;51.468;5.814;2023-02-01T00:01:21;101740.31;;;5.45;100.00
60244;BME280;46106;51.468;5.814;2023-02-01T00:03:47;101733.97;;;5.44;100.00
60244;BME280;46106;51.468;5.814;2023-02-01T00:06:12;101727.41;;;5.50;100.00
60244;BME280;46106;51.468;5.814;2023-02-01T00:08:37;101725.81;;;5.44;100.00
60244;BME280;46106;51.468;5.814;2023-02-01T00:11:06;101721.16;;;5.48;100.00
60244;BME280;46106;51.468;5.814;2023-02-01T00:13:34;101725.69;;;5.47;100.00
60244;BME280;46106;51.468;5.814;2023-02-01T00:16:08;101721.63;;;5.37;100.00
60244;BME280;46106;51.468;5.814;2023-02-01T00:18:35;101729.16;;;5.30;100.00
60244;BME280;46106;51.468;5.814;2023-02-01T00:21:00;101719.22;;;5.29;100.00
60244;BME280;46106;51.468;5.814;2023-02-01T00:23:26;101722.09;;;5.26;100.00
60244;BME280;46106;51.468;5.814;2023-02-01T00:25:52;101703.84;;;5.30;100.00
60244;BME280;46106;51.468;5.814;2023-02-01T00:28:18;101673.81;;;5.12;100.00
60244;BME280;46106;51.468;5.814;2023-02-01T00:30:43;101686.44;;;5.34;100.00
60244;BME280;46106;51.468;5.814;2023-02-01T00:33:09;101675.66;;;5.32;100.00
60244;BME280;46106;51.468;5.814;2023-02-01T00:35:35;101672.19;;;5.29;100.00
60244;BME280;46106;51.468;5.814;2023-02-01T00:38:00;101676.13;;;5.22;100.00
60244;BME280;46106;51.468;5.814;2023-02-01T00:40:26;101685.69;;;5.30;100.00
60244;BME280;46106;51.468;5.814;2023-02-01T00:42:52;101684.16;;;5.25;100.00
60244;BME280;46106;51.468;5.814;2023-02-01T00:45:18;101695.81;;;5.27;100.00
60244;BME280;46106;51.468;5.814;2023-02-01T00:47:43;101690.25;;;5.30;100.00
60244;BME280;46106;51.468;5.814;2023-02-01T00:50:09;101708.41;;;5.28;100.00
60244;BME280;46106;51.468;5.814;2023-02-01T00:52:35;101700.22;;;5.29;100.00
60244;BME280;46106;51.468;5.814;2023-02-01T00:55:01;101696.75;;;5.26;100.00
60244;BME280;46106;51.468;5.814;2023-02-01T00:57:26;101702.00;;;5.30;100.00
60244;BME280;46106;51.468;5.814;2023-02-01T00:59:52;101711.63;;;5.17;100.00
60244;BME280;46106;51.468;5.814;2023-02-01T01:02:17;101702.44;;;5.20;100.00
60244;BME280;46106;51.468;5.814;2023-02-01T01:04:42;101704.97;;;5.24;100.00
60244;BME280;46106;51.468;5.814;2023-02-01T01:07:08;101708.97;;;5.15;100.00
60244;BME280;46106;51.468;5.814;2023-02-01T01:09:34;101710.88;;;5.13;100.00
60244;BME280;46106;51.468;5.814;2023-02-01T01:11:59;101709.22;;;5.09;100.00
60244;BME280;46106;51.468;5.814;2023-02-01T01:14:29;101704.75;;;5.08;100.00
60244;BME280;46106;51.468;5.814;2023-02-01T01:16:55;101712.00;;;5.08;100.00
60244;BME280;46106;51.468;5.814;2023-02-01T01:19:20;101711.13;;;5.07;100.00
60244;BME280;46106;51.468;5.814;2023-02-01T01:21:46;101714.09;;;5.01;100.00
60244;BME280;46106;51.468;5.814;2023-02-01T01:24:11;101714.84;;;5.05;100.00
60244;BME280;46106;51.468;5.814;2023-02-01T01:26:37;101711.69;;;4.93;100.00
60244;BME280;46106;51.468;5.814;2023-02-01T01:29:02;101708.34;;;5.09;100.00
60244;BME280;46106;51.468;5.814;2023-02-01T01:31:28;101697.13;;;4.96;100.00
60244;BME280;46106;51.468;5.814;2023-02-01T01:33:55;101696.44;;;4.91;100.00
60244;BME280;46106;51.468;5.814;2023-02-01T01:36:22;101694.84;;;4.85;100.00
60244;BME280;46106;51.468;5.814;2023-02-01T01:38:48;101700.56;;;4.79;100.00
60244;BME280;46106;51.468;5.814;2023-02-01T01:41:16;101690.44;;;4.60;100.00
60244;BME280;46106;51.468;5.814;2023-02-01T01:46:52;101708.47;;;4.62;100.00
60244;BME280;46106;51.468;5.814;2023-02-01T01:49:22;101705.78;;;4.62;100.00
60244;BME280;46106;51.468;5.814;2023-02-01T01:52:07;101706.72;;;4.60;100.00
60244;BME280;46106;51.468;5.814;2023-02-01T01:54:37;101710.19;;;4.64;100.00
60244;BME280;46106;51.468;5.814;2023-02-01T01:57:12;101704.31;;;4.53;100.00
60244;BME280;46106;51.468;5.814;2023-02-01T01:59:41;101713.03;;;4.61;100.00
60244;BME280;46106;51.468;5.814;2023-02-01T02:02:07;101695.34;;;4.51;100.00
60244;BME280;46106;51.468;5.814;2023-02-01T02:04:33;101710.75;;;4.50;100.00
60244;BME280;46106;51.468;5.814;2023-02-01T02:07:11;101705.88;;;4.36;100.00
60244;BME280;46106;51.468;5.814;2023-02-01T02:09:38;101712.00;;;4.41;100.00
60244;BME280;46106;51.468;5.814;2023-02-01T02:12:04;101704.78;;;4.40;100.00
60244;BME280;46106;51.468;5.814;2023-02-01T02:14:30;101689.03;;;4.28;100.00
60244;BME280;46106;51.468;5.814;2023-02-01T02:22:59;101698.84;;;4.31;100.00
60244;BME280;46106;51.468;5.814;2023-02-01T02:28:30;101691.63;;;4.31;100.00
60244;BME280;46106;51.468;5.814;2023-02-01T02:31:53;101679.69;;;4.35;100.00
60244;BME280;46106;51.468;5.814;2023-02-01T02:33:58;101669.63;;;4.39;100.00
60244;BME280;46106;51.468;5.814;2023-02-01T02:36:48;101664.06;;;4.42;100.00
60244;BME280;46106;51.468;5.814;2023-02-01T02:39:27;101665.56;;;4.49;100.00
60244;BME280;46106;51.468;5.814;2023-02-01T02:41:59;101659.41;;;4.46;100.00
60244;BME280;46106;51.468;5.814;2023-02-01T02:45:01;101658.22;;;4.53;100.00
60244;BME280;46106;51.468;5.814;2023-02-01T02:50:27;101652.97;;;4.70;100.00
60244;BME280;46106;51.468;5.814;2023-02-01T02:53:26;101653.38;;;4.61;100.00
60244;BME280;46106;51.468;5.814;2023-02-01T02:56:12;101653.75;;;4.74;100.00
60244;BME280;46106;51.468;5.814;2023-02-01T02:58:57;101660.91;;;4.75;100.00
60244;BME280;46106;51.468;5.814;2023-02-01T03:01:42;101654.31;;;4.82;100.00
60244;BME280;46106;51.468;5.814;2023-02-01T03:04:26;101651.66;;;4.81;100.00
60244;BME280;46106;51.468;5.814;2023-02-01T03:06:53;101657.69;;;4.87;100.00
60244;BME280;46106;51.468;5.814;2023-02-01T03:09:34;101645.94;;;4.87;100.00
60244;BME280;46106;51.468;5.814;2023-02-01T03:12:04;101637.94;;;4.84;100.00
60244;BME280;46106;51.468;5.814;2023-02-01T03:14:54;101646.38;;;4.98;100.00
60244;BME280;46106;51.468;5.814;2023-02-01T03:17:32;101618.81;;;4.87;100.00
60244;BME280;46106;51.468;5.814;2023-02-01T03:20:02;101638.03;;;5.03;100.00
60244;BME280;46106;51.468;5.814;2023-02-01T03:22:29;101629.03;;;5.02;100.00
60244;BME280;46106;51.468;5.814;2023-02-01T03:25:05;101635.94;;;5.09;100.00
60244;BME280;46106;51.468;5.814;2023-02-01T03:27:36;101640.69;;;5.04;100.00
60244;BME280;46106;51.468;5.814;2023-02-01T03:30:11;101622.50;;;5.06;100.00
60244;BME280;46106;51.468;5.814;2023-02-01T03:32:44;101641.44;;;5.08;100.00
60244;BME280;46106;51.468;5.814;2023-02-01T03:37:54;101632.97;;;5.15;100.00
60244;BME280;46106;51.468;5.814;2023-02-01T03:40:22;101644.56;;;5.19;100.00
60244;BME280;46106;51.468;5.814;2023-02-01T03:42:51;101632.81;;;5.19;100.00
60244;BME280;46106;51.468;5.814;2023-02-01T03:45:27;101626.66;;;5.15;100.00
60244;BME280;46106;51.468;5.814;2023-02-01T03:47:58;101614.03;;;5.14;100.00
60244;BME280;46106;51.468;5.814;2023-02-01T03:50:26;101629.06;;;5.21;100.00
60244;BME280;46106;51.468;5.814;2023-02-01T03:53:03;101630.97;;;5.19;100.00
60244;BME280;46106;51.468;5.814;2023-02-01T03:55:31;101637.78;;;5.09;100.00
60244;BME280;46106;51.468;5.814;2023-02-01T03:58:02;101629.41;;;4.93;100.00
60244;BME280;46106;51.468;5.814;2023-02-01T04:00:31;101626.56;;;4.96;100.00
60244;BME280;46106;51.468;5.814;2023-02-01T04:02:57;101612.38;;;4.89;100.00
60244;BME280;46106;51.468;5.814;2023-02-01T04:05:22;101614.28;;;4.87;100.00
60244;BME280;46106;51.468;5.814;2023-02-01T04:07:48;101620.53;;;4.89;100.00
60244;BME280;46106;51.468;5.814;2023-02-01T04:10:14;101602.81;;;4.81;100.00
60244;BME280;46106;51.468;5.814;2023-02-01T04:12:39;101609.19;;;4.79;100.00
60244;BME280;46106;51.468;5.814;2023-02-01T04:15:06;101613.59;;;4.82;100.00
60244;BME280;46106;51.468;5.814;2023-02-01T04:17:31;101613.59;;;4.82;100.00
60244;BME280;46106;51.468;5.814;2023-02-01T04:19:57;101600.81;;;4.64;100.00
60244;BME280;46106;51.468;5.814;2023-02-01T04:22:22;101608.13;;;4.62;100.00
60244;BME280;46106;51.468;5.814;2023-02-01T04:24:48;101622.56;;;4.62;100.00
60244;BME280;46106;51.468;5.814;2023-02-01T04:27:13;101621.88;;;4.57;100.00
60244;BME280;46106;51.468;5.814;2023-02-01T04:29:39;101614.00;;;4.51;100.00
60244;BME280;46106;51.468;5.814;2023-02-01T04:32:05;101619.28;;;4.54;100.00
60244;BME280;46106;51.468;5.814;2023-02-01T04:34:31;101624.72;;;4.54;100.00
60244;BME280;46106;51.468;5.814;2023-02-01T04:36:56;101629.38;;;4.50;100.00
60244;BME280;46106;51.468;5.814;2023-02-01T04:39:22;101623.09;;;4.50;100.00
60244;BME280;46106;51.468;5.814;2023-02-01T04:41:47;101628.47;;;4.51;100.00
60244;BME280;46106;51.468;5.814;2023-02-01T04:44:15;101623.47;;;4.40;100.00
60244;BME280;46106;51.468;5.814;2023-02-01T04:46:41;101623.34;;;4.44;100.00
60244;BME280;46106;51.468;5.814;2023-02-01T04:49:09;101606.94;;;4.47;100.00
60244;BME280;46106;51.468;5.814;2023-02-01T04:51:34;101616.63;;;4.52;100.00
60244;BME280;46106;51.468;5.814;2023-02-01T04:54:00;101620.94;;;4.36;100.00
60244;BME280;46106;51.468;5.814;2023-02-01T04:56:25;101646.94;;;4.41;100.00
60244;BME280;46106;51.468;5.814;2023-02-01T04:58:51;101641.81;;;4.34;100.00
60244;BME280;46106;51.468;5.814;2023-02-01T05:01:16;101642.69;;;4.34;100.00
60244;BME280;46106;51.468;5.814;2023-02-01T05:03:42;101637.47;;;4.30;100.00
60244;BME280;46106;51.468;5.814;2023-02-01T05:06:07;101631.09;;;4.31;100.00
60244;BME280;46106;51.468;5.814;2023-02-01T05:08:33;101643.31;;;4.41;100.00
60244;BME280;46106;51.468;5.814;2023-02-01T05:10:58;101641.25;;;4.48;100.00
60244;BME280;46106;51.468;5.814;2023-02-01T05:13:24;101626.00;;;4.45;100.00
60244;BME280;46106;51.468;5.814;2023-02-01T05:16:09;101630.25;;;4.51;100.00
60244;BME280;46106;51.468;5.814;2023-02-01T05:18:34;101621.78;;;4.38;100.00
60244;BME280;46106;51.468;5.814;2023-02-01T05:21:00;101617.28;;;4.37;100.00
60244;BME280;46106;51.468;5.814;2023-02-01T05:23:26;101624.91;;;4.49;100.00
60244;BME280;46106;51.468;5.814;2023-02-01T05:25:51;101619.88;;;4.40;100.00
60244;BME280;46106;51.468;5.814;2023-02-01T05:28:17;101627.78;;;4.46;100.00
60244;BME280;46106;51.468;5.814;2023-02-01T05:30:42;101629.44;;;4.49;100.00
60244;BME280;46106;51.468;5.814;2023-02-01T05:33:07;101630.44;;;4.68;100.00
60244;BME280;46106;51.468;5.814;2023-02-01T05:35:33;101626.13;;;4.64;100.00
60244;BME280;46106;51.468;5.814;2023-02-01T05:37:58;101621.44;;;4.68;100.00
60244;BME280;46106;51.468;5.814;2023-02-01T05:40:24;101616.81;;;4.70;100.00
60244;BME280;46106;51.468;5.814;2023-02-01T05:42:49;101610.41;;;4.72;100.00
60244;BME280;46106;51.468;5.814;2023-02-01T05:45:15;101606.34;;;4.60;100.00
60244;BME280;46106;51.468;5.814;2023-02-01T05:47:40;101606.47;;;4.57;100.00
60244;BME280;46106;51.468;5.814;2023-02-01T05:50:06;101617.31;;;4.57;100.00
60244;BME280;46106;51.468;5.814;2023-02-01T05:52:32;101622.06;;;4.52;100.00
60244;BME280;46106;51.468;5.814;2023-02-01T05:54:57;101633.28;;;4.65;100.00
60244;BME280;46106;51.468;5.814;2023-02-01T05:57:23;101630.88;;;4.57;100.00
60244;BME280;46106;51.468;5.814;2023-02-01T05:59:48;101624.66;;;4.55;100.00
60244;BME280;46106;51.468;5.814;2023-02-01T06:02:15;101644.59;;;4.54;100.00
60244;BME280;46106;51.468;5.814;2023-02-01T06:04:40;101637.53;;;4.50;100.00
60244;BME280;46106;51.468;5.814;2023-02-01T06:07:07;101640.25;;;4.50;100.00
60244;BME280;46106;51.468;5.814;2023-02-01T06:09:34;101642.31;;;4.44;100.00
60244;BME280;46106;51.468;5.814;2023-02-01T06:11:59;101629.44;;;4.49;100.00
60244;BME280;46106;51.468;5.814;2023-02-01T06:14:26;101632.16;;;4.49;100.00
60244;BME280;46106;51.468;5.814;2023-02-01T06:16:53;101630.13;;;4.54;100.00
60244;BME280;46106;51.468;5.814;2023-02-01T06:19:19;101638.22;;;4.55;100.00
60244;BME280;46106;51.468;5.814;2023-02-01T06:21:44;101636.25;;;4.59;100.00
60244;BME280;46106;51.468;5.814;2023-02-01T06:24:10;101638.84;;;4.62;100.00
60244;BME280;46106;51.468;5.814;2023-02-01T06:26:35;101630.41;;;4.70;100.00
60244;BME280;46106;51.468;5.814;2023-02-01T06:29:01;101631.13;;;4.73;100.00
60244;BME280;46106;51.468;5.814;2023-02-01T06:31:26;101639.22;;;4.75;100.00
60244;BME280;46106;51.468;5.814;2023-02-01T06:33:52;101608.69;;;4.70;100.00
60244;BME280;46106;51.468;5.814;2023-02-01T06:36:18;101620.16;;;4.76;100.00
60244;BME280;46106;51.468;5.814;2023-02-01T06:38:47;101621.19;;;4.74;100.00
60244;BME280;46106;51.468;5.814;2023-02-01T06:41:13;101634.75;;;4.74;100.00
60244;BME280;46106;51.468;5.814;2023-02-01T06:43:39;101629.47;;;4.71;100.00
60244;BME280;46106;51.468;5.814;2023-02-01T06:46:07;101638.41;;;4.73;100.00
60244;BME280;46106;51.468;5.814;2023-02-01T06:48:33;101646.53;;;4.73;100.00
60244;BME280;46106;51.468;5.814;2023-02-01T06:50:59;101648.31;;;4.74;100.00
60244;BME280;46106;51.468;5.814;2023-02-01T06:53:25;101642.78;;;4.75;100.00
60244;BME280;46106;51.468;5.814;2023-02-01T06:55:54;101654.63;;;4.74;100.00
60244;BME280;46106;51.468;5.814;2023-02-01T06:58:20;101647.53;;;4.70;100.00
60244;BME280;46106;51.468;5.814;2023-02-01T07:00:45;101652.59;;;4.79;100.00
60244;BME280;46106;51.468;5.814;2023-02-01T07:03:11;101647.47;;;4.72;100.00
60244;BME280;46106;51.468;5.814;2023-02-01T07:05:37;101656.47;;;4.74;100.00
60244;BME280;46106;51.468;5.814;2023-02-01T07:08:02;101649.31;;;4.71;100.00
60244;BME280;46106;51.468;5.814;2023-02-01T07:10:28;101627.25;;;4.58;100.00
60244;BME280;46106;51.468;5.814;2023-02-01T07:12:56;101658.94;;;4.78;100.00
60244;BME280;46106;51.468;5.814;2023-02-01T07:15:22;101661.53;;;4.82;100.00
60244;BME280;46106;51.468;5.814;2023-02-01T07:17:48;101651.97;;;4.73;100.00
60244;BME280;46106;51.468;5.814;2023-02-01T07:20:15;101658.25;;;4.73;100.00
60244;BME280;46106;51.468;5.814;2023-02-01T07:22:40;101646.09;;;4.62;100.00
60244;BME280;46106;51.468;5.814;2023-02-01T07:25:06;101653.03;;;4.69;100.00
60244;BME280;46106;51.468;5.814;2023-02-01T07:27:36;101646.84;;;4.65;100.00
60244;BME280;46106;51.468;5.814;2023-02-01T07:30:04;101658.66;;;4.64;100.00
60244;BME280;46106;51.468;5.814;2023-02-01T07:32:29;101647.59;;;4.69;100.00
60244;BME280;46106;51.468;5.814;2023-02-01T07:34:56;101648.44;;;4.71;100.00
60244;BME280;46106;51.468;5.814;2023-02-01T07:37:21;101645.41;;;4.56;100.00
60244;BME280;46106;51.468;5.814;2023-02-01T07:39:47;101657.69;;;4.65;100.00
60244;BME280;46106;51.468;5.814;2023-02-01T07:42:12;101658.66;;;4.64;100.00
60244;BME280;46106;51.468;5.814;2023-02-01T07:44:37;101648.75;;;4.63;100.00
60244;BME280;46106;51.468;5.814;2023-02-01T07:47:03;101656.50;;;4.50;100.00
60244;BME280;46106;51.468;5.814;2023-02-01T07:49:28;101665.41;;;4.54;100.00
60244;BME280;46106;51.468;5.814;2023-02-01T07:51:54;101658.47;;;4.47;100.00
60244;BME280;46106;51.468;5.814;2023-02-01T07:54:19;101663.44;;;4.57;100.00
60244;BME280;46106;51.468;5.814;2023-02-01T07:56:45;101670.63;;;4.58;100.00
60244;BME280;46106;51.468;5.814;2023-02-01T07:59:10;101656.38;;;4.53;100.00
60244;BME280;46106;51.468;5.814;2023-02-01T08:01:37;101658.97;;;4.56;100.00
60244;BME280;46106;51.468;5.814;2023-02-01T08:04:03;101658.09;;;4.56;100.00
60244;BME280;46106;51.468;5.814;2023-02-01T08:06:31;101659.66;;;4.62;100.00
60244;BME280;46106;51.468;5.814;2023-02-01T08:08:57;101670.97;;;4.73;100.00
60244;BME280;46106;51.468;5.814;2023-02-01T08:11:24;101664.34;;;4.58;100.00
60244;BME280;46106;51.468;5.814;2023-02-01T08:13:50;101664.41;;;4.56;100.00
60244;BME280;46106;51.468;5.814;2023-02-01T08:16:16;101661.00;;;4.51;100.00
60244;BME280;46106;51.468;5.814;2023-02-01T08:18:42;101669.81;;;4.56;100.00
60244;BME280;46106;51.468;5.814;2023-02-01T08:21:13;101673.16;;;4.63;100.00
60244;BME280;46106;51.468;5.814;2023-02-01T08:23:40;101657.06;;;4.58;100.00
60244;BME280;46106;51.468;5.814;2023-02-01T08:26:14;101680.94;;;4.72;100.00
60244;BME280;46106;51.468;5.814;2023-02-01T08:28:42;101681.00;;;4.71;100.00
60244;BME280;46106;51.468;5.814;2023-02-01T08:31:10;101686.75;;;4.84;100.00
60244;BME280;46106;51.468;5.814;2023-02-01T08:33:38;101696.38;;;4.92;100.00
60244;BME280;46106;51.468;5.814;2023-02-01T08:36:05;101696.19;;;4.97;100.00
60244;BME280;46106;51.468;5.814;2023-02-01T08:38:30;101690.28;;;5.08;100.00
60244;BME280;46106;51.468;5.814;2023-02-01T08:40:56;101687.91;;;5.00;100.00
60244;BME280;46106;51.468;5.814;2023-02-01T08:43:21;101692.69;;;4.93;100.00
60244;BME280;46106;51.468;5.814;2023-02-01T08:45:47;101686.41;;;4.93;100.00
60244;BME280;46106;51.468;5.814;2023-02-01T08:48:12;101685.41;;;4.95;100.00
60244;BME280;46106;51.468;5.814;2023-02-01T08:50:38;101681.84;;;4.93;100.00
60244;BME280;46106;51.468;5.814;2023-02-01T08:53:03;101678.88;;;5.00;100.00
60244;BME280;46106;51.468;5.814;2023-02-01T08:55:29;101682.56;;;5.19;100.00
60244;BME280;46106;51.468;5.814;2023-02-01T08:57:55;101667.94;;;5.23;100.00
60244;BME280;46106;51.468;5.814;2023-02-01T09:00:21;101677.00;;;5.22;100.00
60244;BME280;46106;51.468;5.814;2023-02-01T09:02:47;101670.34;;;5.29;100.00
60244;BME280;46106;51.468;5.814;2023-02-01T09:05:12;101672.72;;;5.37;100.00
60244;BME280;46106;51.468;5.814;2023-02-01T09:07:39;101675.38;;;5.39;100.00
60244;BME280;46106;51.468;5.814;2023-02-01T09:10:05;101667.72;;;5.48;100.00
60244;BME280;46106;51.468;5.814;2023-02-01T09:12:32;101676.13;;;5.42;100.00
60244;BME280;46106;51.468;5.814;2023-02-01T09:14:58;101669.97;;;5.59;100.00
60244;BME280;46106;51.468;5.814;2023-02-01T09:17:29;101670.50;;;5.67;100.00
60244;BME280;46106;51.468;5.814;2023-02-01T09:19:54;101661.44;;;5.67;100.00
60244;BME280;46106;51.468;5.814;2023-02-01T09:22:20;101654.72;;;5.55;100.00
60244;BME280;46106;51.468;5.814;2023-02-01T09:24:46;101658.25;;;5.57;100.00
60244;BME280;46106;51.468;5.814;2023-02-01T09:27:11;101660.69;;;5.63;100.00
60244;BME280;46106;51.468;5.814;2023-02-01T09:29:37;101647.91;;;5.65;100.00
60244;BME280;46106;51.468;5.814;2023-02-01T09:32:02;101648.09;;;5.81;100.00
60244;BME280;46106;51.468;5.814;2023-02-01T09:34:28;101648.69;;;5.88;100.00
60244;BME280;46106;51.468;5.814;2023-02-01T09:36:53;101645.63;;;5.96;100.00
60244;BME280;46106;51.468;5.814;2023-02-01T09:39:19;101650.44;;;6.10;100.00
60244;BME280;46106;51.468;5.814;2023-02-01T09:42:06;101640.75;;;6.04;100.00
60244;BME280;46106;51.468;5.814;2023-02-01T09:44:58;101650.16;;;6.16;100.00
60244;BME280;46106;51.468;5.814;2023-02-01T09:47:29;101658.66;;;6.08;100.00
60244;BME280;46106;51.468;5.814;2023-02-01T09:50:14;101651.03;;;6.16;100.00
60244;BME280;46106;51.468;5.814;2023-02-01T09:55:50;101660.97;;;6.36;100.00
60244;BME280;46106;51.468;5.814;2023-02-01T09:58:38;101659.34;;;6.32;100.00
60244;BME280;46106;51.468;5.814;2023-02-01T10:01:16;101650.72;;;6.41;100.00
60244;BME280;46106;51.468;5.814;2023-02-01T10:03:43;101644.03;;;6.49;100.00
60244;BME280;46106;51.468;5.814;2023-02-01T10:20:12;101656.59;;;6.88;100.00
60244;BME280;46106;51.468;5.814;2023-02-01T10:28:01;101654.44;;;7.29;100.00
60244;BME280;46106;51.468;5.814;2023-02-01T10:30:37;101636.28;;;7.30;100.00
60244;BME280;46106;51.468;5.814;2023-02-01T10:33:49;101659.34;;;7.40;100.00
60244;BME280;46106;51.468;5.814;2023-02-01T10:36:19;101676.66;;;7.39;100.00
60244;BME280;46106;51.468;5.814;2023-02-01T10:38:46;101669.78;;;7.49;100.00
60244;BME280;46106;51.468;5.814;2023-02-01T10:41:14;101677.34;;;7.60;100.00
60244;BME280;46106;51.468;5.814;2023-02-01T10:43:41;101666.78;;;7.54;100.00
60244;BME280;46106;51.468;5.814;2023-02-01T10:46:07;101672.38;;;7.51;100.00
60244;BME280;46106;51.468;5.814;2023-02-01T10:48:33;101666.84;;;7.52;100.00
60244;BME280;46106;51.468;5.814;2023-02-01T10:51:09;101664.47;;;7.46;100.00
60244;BME280;46106;51.468;5.814;2023-02-01T10:53:46;101662.53;;;7.48;100.00
60244;BME280;46106;51.468;5.814;2023-02-01T10:56:24;101658.59;;;7.54;100.00
60244;BME280;46106;51.468;5.814;2023-02-01T10:58:50;101668.88;;;7.49;100.00
60244;BME280;46106;51.468;5.814;2023-02-01T11:01:23;101671.75;;;7.46;100.00
60244;BME280;46106;51.468;5.814;2023-02-01T11:03:57;101650.84;;;7.46;100.00
60244;BME280;46106;51.468;5.814;2023-02-01T11:06:36;101658.19;;;7.44;100.00
60244;BME280;46106;51.468;5.814;2023-02-01T11:11:55;101642.69;;;7.46;100.00
60244;BME280;46106;51.468;5.814;2023-02-01T11:16:53;101637.56;;;7.40;100.00
60244;BME280;46106;51.468;5.814;2023-02-01T11:19:19;101627.75;;;7.36;100.00
60244;BME280;46106;51.468;5.814;2023-02-01T11:21:48;101613.97;;;7.39;100.00
60244;BME280;46106;51.468;5.814;2023-02-01T11:24:32;101619.66;;;7.52;100.00
60244;BME280;46106;51.468;5.814;2023-02-01T11:27:02;101607.81;;;7.53;100.00
60244;BME280;46106;51.468;5.814;2023-02-01T11:29:37;101598.56;;;7.55;100.00
60244;BME280;46106;51.468;5.814;2023-02-01T11:32:04;101607.56;;;7.58;100.00
60244;BME280;46106;51.468;5.814;2023-02-01T11:34:58;101608.84;;;7.50;100.00
60244;BME280;46106;51.468;5.814;2023-02-01T11:37:34;101600.50;;;7.53;100.00
60244;BME280;46106;51.468;5.814;2023-02-01T11:40:22;101600.03;;;7.45;100.00
60244;BME280;46106;51.468;5.814;2023-02-01T11:45:27;101603.38;;;7.50;100.00
60244;BME280;46106;51.468;5.814;2023-02-01T11:47:54;101595.28;;;7.49;100.00
60244;BME280;46106;51.468;5.814;2023-02-01T11:50:44;101600.59;;;7.52;100.00
60244;BME280;46106;51.468;5.814;2023-02-01T12:05:22;101591.91;;;7.61;100.00
60244;BME280;46106;51.468;5.814;2023-02-01T12:10:32;101576.09;;;7.68;100.00
60244;BME280;46106;51.468;5.814;2023-02-01T12:21:47;101572.06;;;7.59;100.00
60244;BME280;46106;51.468;5.814;2023-02-01T12:33:02;101580.94;;;7.79;100.00
60244;BME280;46106;51.468;5.814;2023-02-01T12:43:49;101571.38;;;7.87;100.00
60244;BME280;46106;51.468;5.814;2023-02-01T12:46:21;101573.66;;;7.95;100.00
60244;BME280;46106;51.468;5.814;2023-02-01T12:51:36;101558.47;;;7.91;100.00
60244;BME280;46106;51.468;5.814;2023-02-01T12:54:12;101550.09;;;7.78;100.00
60244;BME280;46106;51.468;5.814;2023-02-01T12:56:44;101558.25;;;7.78;100.00
60244;BME280;46106;51.468;5.814;2023-02-01T12:59:22;101574.53;;;7.80;100.00
60244;BME280;46106;51.468;5.814;2023-02-01T13:01:55;101565.66;;;7.76;100.00
60244;BME280;46106;51.468;5.814;2023-02-01T13:04:32;101567.22;;;7.80;100.00
60244;BME280;46106;51.468;5.814;2023-02-01T13:07:11;101560.41;;;7.89;100.00
60244;BME280;46106;51.468;5.814;2023-02-01T13:12:47;101550.63;;;7.85;100.00
60244;BME280;46106;51.468;5.814;2023-02-01T13:15:47;101561.34;;;7.88;100.00
60244;BME280;46106;51.468;5.814;2023-02-01T13:18:16;101533.13;;;7.89;100.00
60244;BME280;46106;51.468;5.814;2023-02-01T13:20:55;101544.22;;;8.02;100.00
60244;BME280;46106;51.468;5.814;2023-02-01T13:23:27;101548.78;;;8.01;100.00
60244;BME280;46106;51.468;5.814;2023-02-01T13:25:54;101551.69;;;8.14;100.00
60244;BME280;46106;51.468;5.814;2023-02-01T13:42:46;101555.00;;;8.35;100.00
60244;BME280;46106;51.468;5.814;2023-02-01T13:45:16;101551.34;;;8.20;100.00
60244;BME280;46106;51.468;5.814;2023-02-01T13:47:45;101547.97;;;8.31;100.00
60244;BME280;46106;51.468;5.814;2023-02-01T13:50:21;101550.69;;;8.31;100.00
60244;BME280;46106;51.468;5.814;2023-02-01T13:56:20;101540.59;;;8.17;100.00
60244;BME280;46106;51.468;5.814;2023-02-01T13:58:48;101570.94;;;8.27;100.00
60244;BME280;46106;51.468;5.814;2023-02-01T14:03:57;101561.50;;;8.33;100.00
60244;BME280;46106;51.468;5.814;2023-02-01T14:09:12;101581.34;;;8.36;100.00
60244;BME280;46106;51.468;5.814;2023-02-01T14:19:27;101568.31;;;8.25;100.00
60244;BME280;46106;51.468;5.814;2023-02-01T14:21:55;101570.88;;;8.28;100.00
60244;BME280;46106;51.468;5.814;2023-02-01T14:24:33;101574.03;;;8.37;100.00
60244;BME280;46106;51.468;5.814;2023-02-01T14:27:02;101579.66;;;8.34;100.00
60244;BME280;46106;51.468;5.814;2023-02-01T14:29:36;101588.97;;;8.29;100.00
60244;BME280;46106;51.468;5.814;2023-02-01T14:32:11;101596.38;;;8.27;100.00
60244;BME280;46106;51.468;5.814;2023-02-01T15:03:56;101599.38;;;8.07;100.00
60244;BME280;46106;51.468;5.814;2023-02-01T15:09:07;101591.09;;;7.93;100.00
60244;BME280;46106;51.468;5.814;2023-02-01T15:14:26;101592.75;;;8.11;100.00
60244;BME280;46106;51.468;5.814;2023-02-01T15:16:54;101570.69;;;8.00;100.00
60244;BME280;46106;51.468;5.814;2023-02-01T15:19:22;101554.03;;;7.88;100.00
60244;BME280;46106;51.468;5.814;2023-02-01T15:21:51;101574.88;;;7.73;100.00
60244;BME280;46106;51.468;5.814;2023-02-01T15:24:29;101595.84;;;7.89;100.00
60244;BME280;46106;51.468;5.814;2023-02-01T15:27:01;101607.63;;;7.89;100.00
60244;BME280;46106;51.468;5.814;2023-02-01T15:29:28;101602.88;;;7.93;100.00
60244;BME280;46106;51.468;5.814;2023-02-01T15:31:58;101602.09;;;7.91;100.00
60244;BME280;46106;51.468;5.814;2023-02-01T15:34:44;101611.28;;;7.88;100.00
60244;BME280;46106;51.468;5.814;2023-02-01T15:37:15;101594.94;;;7.88;100.00
60244;BME280;46106;51.468;5.814;2023-02-01T15:40:02;101607.63;;;7.89;100.00
60244;BME280;46106;51.468;5.814;2023-02-01T15:42:28;101608.66;;;7.87;100.00